METAR Data
IDs: Format: Raw Decoded Include TAF

Data at: 1545 UTC 18 Aug 2019

PAKP 181456Z AUTO 35003KT 10SM CLR M01/M02 A3055 RMK AO2 SLP388 T10111017 58013 FZRANO
PAKP 181356Z AUTO 36003KT 10SM CLR M02/M03 A3057 RMK AO2 SLP394 T10171028 FZRANO
PAKP 181256Z AUTO 05008KT 10SM CLR M01/M02 A3058 RMK AO2 SLP397 T10111022 FZRANO
PAKP 181156Z AUTO 04005KT 10SM SCT044 M01/M02 A3059 RMK AO2 SLP401 T10061017 10033 21006 56003 FZRANO
PAKP 181109Z AUTO 03004KT 10SM SCT008 OVC044 01/M01 A3060 RMK AO2 FZRANO
PAKP 180956Z AUTO 06008KT 10SM FEW003 SCT030 OVC050 01/01 A3060 RMK AO2 SLP402 T00110006 FZRANO
PAKP 180924Z AUTO 05012KT 10SM SCT003 OVC050 02/01 A3060 RMK AO2 FZRANO
PAKP 180856Z AUTO 06010KT 10SM BKN003 OVC050 02/01 A3060 RMK AO2 SLP404 T00220011 400610006 56004 FZRANO
PAKP 180839Z AUTO 06012KT 10SM BKN003 BKN030 OVC055 02/01 A3060 RMK AO2 CIG 002V006 FZRANO
PAKP 180829Z AUTO 06008KT 10SM SCT003 BKN030 OVC055 02/01 A3060 RMK AO2 FZRANO
PAKP 180804Z AUTO 05012G18KT 10SM BKN003 OVC055 02/02 A3060 RMK AO2 FZRANO
PAKP 180756Z AUTO 05009KT 10SM SCT003 BKN048 BKN055 02/02 A3061 RMK AO2 SLP407 T00220017 FZRANO
PAKP 180656Z AUTO 05010KT 10SM FEW005 OVC048 03/02 A3060 RMK AO2 SLP404 T00280017
PAKP 180556Z AUTO 05011KT 10SM SCT030 OVC048 03/01 A3061 RMK AO2 RAE21 SLP409 P0000 60000 T00330011 10061 20033 58010
PAKP 180510Z AUTO 06013G17KT 10SM -RA SCT028 BKN036 OVC050 03/02 A3062 RMK AO2 P0000
PAKP 180456Z AUTO 06010KT 10SM -RA BKN028 BKN032 OVC039 03/02 A3063 RMK AO2 RAB10 SLP414 P0000 T00330017
PAKP 180424Z AUTO 06012KT 10SM BKN029 OVC034 04/01 A3063 RMK AO2 RAB10E21 P0000
PAKP 180356Z AUTO 06013G17KT 10SM BKN032 OVC038 04/01 A3064 RMK AO2 SLP417 T00440011
PAKP 180256Z AUTO 05012KT 10SM BKN037 BKN044 OVC065 05/01 A3065 RMK AO2 SLP420 T00500006 57003
PAKP 180156Z AUTO 05012G17KT 10SM BKN034 BKN042 OVC070 06/01 A3065 RMK AO2 SLP420 T00560006
PAKP 180056Z AUTO 06014G19KT 10SM SCT029 BKN036 OVC075 06/00 A3065 RMK AO2 SLP421 T00610000
PAKP 172356Z AUTO 06012KT 10SM FEW033 06/01 A3066 RMK AO2 SLP422 60000 T00560006 10061 20017 58009
PAKP 172256Z AUTO 05012KT 10SM CLR 05/00 A3068 RMK AO2 SLP430 T00500000
PAKP 172227Z AUTO 05012KT 010V080 10SM FEW021 05/01 A3067 RMK AO2
PAKP 172156Z AUTO 06011KT 10SM BKN021 BKN026 04/00 A3068 RMK AO2 RAE09 SLP432 P0000 T00440000
PAKP 172136Z AUTO 07010KT 10SM BKN018 BKN026 BKN033 04/00 A3068 RMK AO2 RAE09 P0000
PAKP 172115Z AUTO 06011KT 10SM SCT016 SCT021 BKN033 04/00 A3069 RMK AO2 RAE09 P0000
PAKP 172056Z AUTO 06012KT 10SM -RA SCT016 BKN023 OVC032 03/00 A3069 RMK AO2 RAE24B51UPB14E23 SLP435 P0000 60000 T00330000 51004
PAKP 171956Z AUTO 05011KT 10SM -RA FEW009 OVC030 02/01 A3069 RMK AO2 UPE14B39E48RAB00E11B29 SLP434 P0000 T00220006 FZRANO
PAKP 171903Z AUTO 05012KT 10SM -RA FEW009 OVC030 02/00 A3068 RMK AO2 UPE00RAB00 P0000 FZRANO
PAKP 171856Z AUTO 06011KT 10SM UP OVC030 02/00 A3068 RMK AO2 RAB39E52UPB56 SLP430 P0000 T00220000 FZRANO
PAKP 171812Z AUTO 07011KT 10SM FEW016 OVC030 02/00 A3067 RMK AO2 FZRANO
PAKP 171756Z AUTO 08009KT 10SM FEW016 OVC028 02/00 A3067 RMK AO2 RAE44UPB20E21SNB21E33 SLP429 P0000 60000 T00170000 10017 20006 51013 FZRANO
PAKP 171656Z AUTO 07010KT 10SM -RA OVC026 01/00 A3067 RMK AO2 RAB44 SLP426 P0000 T00110000 FZRANO
PAKP 171556Z AUTO 08010KT 10SM OVC024 01/M01 A3065 RMK AO2 RAE50 SLP420 P0000 T00111006 FZRANO
PAKP 171503Z AUTO 07011KT 10SM -RA OVC028 01/M01 A3064 RMK AO2 P0000 FZRANO
PAKP 171456Z AUTO 06011KT 10SM -RA OVC030 01/M01 A3063 RMK AO2 RAE09B39SNB09E39 SLP415 P0000 60000 T00061006 51014 FZRANO
PAKP 171407Z AUTO 06012G18KT 10SM -RA FEW006 OVC032 01/M01 A3063 RMK AO2 P0000 FZRANO
PAKP 171356Z AUTO 06012KT 10SM -RA FEW021 OVC032 01/M01 A3063 RMK AO2 RAB52SNE52 SLP412 P0000 T00061006 FZRANO
PAKP 171344Z AUTO 06012KT 9SM -SN FEW010 SCT025 OVC032 01/M01 A3062 RMK AO2 P0000 FZRANO
PAKP 171332Z AUTO 06013KT 9SM -SN FEW006 BKN025 OVC030 01/M01 A3062 RMK AO2 P0000 FZRANO
PAKP 171310Z AUTO 06011KT 8SM -SN SCT007 BKN011 OVC028 01/M01 A3062 RMK AO2 P0000 FZRANO
PAKP 171256Z AUTO 06011KT 8SM -SN BKN009 BKN014 OVC028 01/M01 A3062 RMK AO2 RAE11SNB11 CIG 006V012 SLP407 P0000 T00061006 FZRANO
PAKP 171238Z AUTO 06012G18KT 8SM -SN BKN009 BKN014 OVC033 01/M01 A3061 RMK AO2 RAE11SNB11 CIG 007V010 P0000 FZRANO
PAKP 171227Z AUTO 06011G17KT 9SM -SN SCT009 BKN014 OVC050 01/M01 A3061 RMK AO2 RAE11SNB11 P0000 FZRANO
PAKP 171156Z AUTO 06013KT 10SM -RA FEW009 SCT025 OVC050 01/M01 A3059 RMK AO2 RAB18SNE18 SLP398 P0000 60002 70018 T00061006 10039 20006 51021 FZRANO
PAKP 171140Z AUTO 06013G20KT 10SM -RA SCT009 BKN023 OVC050 01/M01 A3059 RMK AO2 RAB18SNE18 P0000 FZRANO
PAKP 171133Z AUTO 06014G20KT 10SM -RA FEW009 BKN014 OVC050 01/M01 A3058 RMK AO2 RAB18SNE18 P0000 FZRANO
PAKP 171124Z AUTO 06012G18KT 10SM -RA BKN009 BKN014 OVC027 01/M01 A3058 RMK AO2 RAB18SNE18 CIG 007V012 P0000 FZRANO
PAKP 171119Z AUTO 06013G19KT 9SM -RA SCT010 BKN015 OVC033 01/M01 A3058 RMK AO2 RAB18SNE18 P0000 FZRANO
PAKP 171056Z AUTO 06010KT 8SM -SN BKN008 BKN013 OVC028 01/M01 A3057 RMK AO2 RAE09SNB09 CIG 006V010 SLP392 P0000 T00061006 FZRANO
PAKP 170956Z AUTO 05013G20KT 10SM -RA SCT005 BKN013 OVC034 01/00 A3056 RMK AO2 SLP386 P0001 T00060000 FZRANO
PAKP 170933Z AUTO 06014KT 10SM -RA BKN005 BKN011 OVC026 01/00 A3055 RMK AO2 CIG 004V010 P0001 FZRANO
PAKP 170924Z AUTO 06013G16KT 10SM -RA SCT005 BKN011 OVC030 01/00 A3054 RMK AO2 P0001 FZRANO
PAKP 170856Z AUTO 06013G20KT 10SM -RA SCT009 BKN015 OVC026 01/00 A3052 RMK AO2 UPB37E39 SLP375 P0000 60001 T00110000 400780011 51026 FZRANO
PAKP 170834Z AUTO 05017G21KT 10SM -RA SCT008 BKN018 OVC026 02/01 A3051 RMK AO2 P0000 FZRANO
PAKP 170813Z AUTO 05015G20KT 10SM -RA BKN008 BKN015 OVC026 02/01 A3050 RMK AO2 CIG 006V010 P0000 FZRANO
PAKP 170756Z AUTO 06015G23KT 10SM -RA FEW008 BKN026 OVC031 02/01 A3049 RMK AO2 SLP364 P0001 T00170006 FZRANO
PAKP 170716Z AUTO 06014G22KT 10SM -RA SCT008 BKN026 OVC031 03/02 A3046 RMK AO2 P0000
PAKP 170708Z AUTO 05014G18KT 10SM -RA SCT010 BKN025 OVC031 03/02 A3045 RMK AO2 P0000
PAKP 170656Z AUTO 05015G22KT 10SM -RA FEW008 SCT025 OVC032 03/02 A3044 RMK AO2 RAE0559B41 SLP345 P0000 T00330017
PAKP 170653Z AUTO 05014G22KT 10SM -RA FEW008 OVC032 03/02 A3044 RMK AO2 RAE0559B41 P0000
PAKP 170556Z AUTO 05012G18KT 10SM -RA SCT027 BKN036 OVC043 04/01 A3041 RMK AO2 RAE0459B20 SLP334 P0000 60000 T00390011 10072 20039 53025
PAKP 170456Z AUTO 06013G20KT 10SM -RA FEW026 OVC034 04/01 A3037 RMK AO2 RAB00E17B36 SLP322 P0000 T00390011
PAKP 170356Z AUTO 01009G21KT 10SM OVC034 06/M01 A3035 RMK AO2 SLP313 T00561011